sensor_id;sensor_type;location;lat;lon;timestamp;pressure;altitude;pressure_sealevel;temperature;humidity
62789;BME280;66401;42.016;21.454;2023-03-13T00:00:48;98660.22;;;5.41;47.50
62789;BME280;66401;42.016;21.454;2023-03-13T00:03:13;98659.34;;;5.51;47.13
62789;BME280;66401;42.016;21.454;2023-03-13T00:05:39;98651.50;;;5.42;48.12
62789;BME280;66401;42.016;21.454;2023-03-13T00:08:04;98651.94;;;5.56;47.33
62789;BME280;66401;42.016;21.454;2023-03-13T00:10:30;98658.44;;;5.60;47.84
62789;BME280;66401;42.016;21.454;2023-03-13T00:12:55;98628.25;;;5.42;46.81
62789;BME280;66401;42.016;21.454;2023-03-13T00:15:21;98652.50;;;5.50;47.74
62789;BME280;66401;42.016;21.454;2023-03-13T00:17:47;98648.47;;;5.47;47.16
62789;BME280;66401;42.016;21.454;2023-03-13T00:20:12;98652.50;;;5.50;47.46
62789;BME280;66401;42.016;21.454;2023-03-13T00:22:38;98660.34;;;5.58;47.61
62789;BME280;66401;42.016;21.454;2023-03-13T00:25:03;98659.44;;;5.67;47.45
62789;BME280;66401;42.016;21.454;2023-03-13T00:27:33;98655.88;;;5.68;46.90
62789;BME280;66401;42.016;21.454;2023-03-13T00:29:59;98660.56;;;5.64;46.75
62789;BME280;66401;42.016;21.454;2023-03-13T00:32:24;98666.03;;;5.43;47.81
62789;BME280;66401;42.016;21.454;2023-03-13T00:34:49;98661.31;;;5.39;47.58
62789;BME280;66401;42.016;21.454;2023-03-13T00:37:15;98658.38;;;5.34;47.92
62789;BME280;66401;42.016;21.454;2023-03-13T00:39:40;98644.50;;;5.17;48.54
62789;BME280;66401;42.016;21.454;2023-03-13T00:42:06;98658.00;;;5.29;48.33
62789;BME280;66401;42.016;21.454;2023-03-13T00:44:32;98650.41;;;5.27;48.48
62789;BME280;66401;42.016;21.454;2023-03-13T00:46:57;98656.19;;;5.21;48.30
62789;BME280;66401;42.016;21.454;2023-03-13T00:49:23;98643.84;;;5.15;48.38
62789;BME280;66401;42.016;21.454;2023-03-13T00:51:48;98662.59;;;5.17;47.99
62789;BME280;66401;42.016;21.454;2023-03-13T00:54:14;98650.13;;;5.12;48.49
62789;BME280;66401;42.016;21.454;2023-03-13T00:56:39;98660.53;;;5.03;48.26
62789;BME280;66401;42.016;21.454;2023-03-13T00:59:05;98675.13;;;5.12;48.92
62789;BME280;66401;42.016;21.454;2023-03-13T01:01:32;98662.59;;;5.17;49.15
62789;BME280;66401;42.016;21.454;2023-03-13T01:04:01;98666.13;;;5.34;48.99
62789;BME280;66401;42.016;21.454;2023-03-13T01:06:29;98642.22;;;4.96;49.41
62789;BME280;66401;42.016;21.454;2023-03-13T01:08:55;98666.34;;;5.05;50.14
62789;BME280;66401;42.016;21.454;2023-03-13T01:11:29;98665.97;;;5.00;49.73
62789;BME280;66401;42.016;21.454;2023-03-13T01:13:58;98644.88;;;4.86;49.64
62789;BME280;66401;42.016;21.454;2023-03-13T01:16:24;98649.16;;;4.96;49.33
62789;BME280;66401;42.016;21.454;2023-03-13T01:18:52;98662.78;;;4.88;49.61
62789;BME280;66401;42.016;21.454;2023-03-13T01:21:20;98649.03;;;4.70;49.71
62789;BME280;66401;42.016;21.454;2023-03-13T01:23:46;98649.50;;;4.65;50.30
62789;BME280;66401;42.016;21.454;2023-03-13T01:26:12;98646.59;;;4.68;48.73
62789;BME280;66401;42.016;21.454;2023-03-13T01:28:38;98644.31;;;4.65;49.38
62789;BME280;66401;42.016;21.454;2023-03-13T01:31:34;98662.53;;;4.81;50.12
62789;BME280;66401;42.016;21.454;2023-03-13T01:34:02;98596.66;;;4.42;49.71
62789;BME280;66401;42.016;21.454;2023-03-13T01:36:29;98649.84;;;4.70;49.50
62789;BME280;66401;42.016;21.454;2023-03-13T01:38:56;98665.66;;;4.85;49.46
62789;BME280;66401;42.016;21.454;2023-03-13T01:41:23;98649.47;;;4.93;49.03
62789;BME280;66401;42.016;21.454;2023-03-13T01:43:49;98649.50;;;5.01;49.46
62789;BME280;66401;42.016;21.454;2023-03-13T01:49:08;98669.72;;;4.87;50.71
62789;BME280;66401;42.016;21.454;2023-03-13T01:51:41;98665.00;;;4.83;50.36
62789;BME280;66401;42.016;21.454;2023-03-13T01:54:25;98667.34;;;4.76;49.96
62789;BME280;66401;42.016;21.454;2023-03-13T01:59:27;98651.78;;;4.68;48.83
62789;BME280;66401;42.016;21.454;2023-03-13T02:01:57;98674.47;;;4.65;50.74
62789;BME280;66401;42.016;21.454;2023-03-13T02:04:23;98659.50;;;4.68;50.73
62789;BME280;66401;42.016;21.454;2023-03-13T02:06:55;98672.72;;;4.65;51.26
62789;BME280;66401;42.016;21.454;2023-03-13T02:09:25;98664.81;;;4.67;50.77
62789;BME280;66401;42.016;21.454;2023-03-13T02:11:55;98666.19;;;4.61;50.80
62789;BME280;66401;42.016;21.454;2023-03-13T02:14:25;98661.34;;;4.58;50.87
62789;BME280;66401;42.016;21.454;2023-03-13T02:16:52;98666.03;;;4.45;51.46
62789;BME280;66401;42.016;21.454;2023-03-13T02:19:26;98678.72;;;4.56;51.94
62789;BME280;66401;42.016;21.454;2023-03-13T02:22:11;98674.69;;;4.44;50.90
62789;BME280;66401;42.016;21.454;2023-03-13T02:27:25;98696.97;;;4.45;50.01
62789;BME280;66401;42.016;21.454;2023-03-13T02:29:51;98685.31;;;4.41;50.90
62789;BME280;66401;42.016;21.454;2023-03-13T02:32:17;98688.72;;;4.31;50.10
62789;BME280;66401;42.016;21.454;2023-03-13T02:34:44;98702.88;;;4.27;50.56
62789;BME280;66401;42.016;21.454;2023-03-13T02:37:12;98672.63;;;4.20;50.63
62789;BME280;66401;42.016;21.454;2023-03-13T02:39:42;98692.66;;;4.36;51.01
62789;BME280;66401;42.016;21.454;2023-03-13T02:42:11;98708.31;;;4.52;49.86
62789;BME280;66401;42.016;21.454;2023-03-13T02:44:39;98714.25;;;4.35;50.62
62789;BME280;66401;42.016;21.454;2023-03-13T02:47:05;98728.50;;;4.29;51.65
62789;BME280;66401;42.016;21.454;2023-03-13T02:49:31;98719.31;;;4.17;51.95
62789;BME280;66401;42.016;21.454;2023-03-13T02:52:16;98718.78;;;4.13;51.92
62789;BME280;66401;42.016;21.454;2023-03-13T02:54:46;98724.34;;;4.18;52.07
62789;BME280;66401;42.016;21.454;2023-03-13T02:57:12;98736.69;;;4.05;52.43
62789;BME280;66401;42.016;21.454;2023-03-13T02:59:38;98721.25;;;3.86;52.49
62789;BME280;66401;42.016;21.454;2023-03-13T03:02:03;98736.72;;;3.86;53.48
62789;BME280;66401;42.016;21.454;2023-03-13T03:04:29;98735.66;;;3.79;53.23
62789;BME280;66401;42.016;21.454;2023-03-13T03:06:55;98738.63;;;3.84;52.26
62789;BME280;66401;42.016;21.454;2023-03-13T03:09:21;98738.63;;;3.84;53.03
62789;BME280;66401;42.016;21.454;2023-03-13T03:11:47;98720.88;;;3.81;53.38
62789;BME280;66401;42.016;21.454;2023-03-13T03:14:13;98721.69;;;3.71;53.04
62789;BME280;66401;42.016;21.454;2023-03-13T03:16:38;98746.34;;;3.84;53.52
62789;BME280;66401;42.016;21.454;2023-03-13T03:19:04;98747.97;;;3.85;52.83
62789;BME280;66401;42.016;21.454;2023-03-13T03:21:34;98754.66;;;3.68;54.27
62789;BME280;66401;42.016;21.454;2023-03-13T03:24:00;98759.09;;;3.76;52.57
62789;BME280;66401;42.016;21.454;2023-03-13T03:26:26;98763.56;;;3.93;52.13
62789;BME280;66401;42.016;21.454;2023-03-13T03:28:52;98765.22;;;3.55;53.38
62789;BME280;66401;42.016;21.454;2023-03-13T03:31:17;98771.16;;;3.56;54.40
62789;BME280;66401;42.016;21.454;2023-03-13T03:33:43;98759.25;;;3.45;54.00
62789;BME280;66401;42.016;21.454;2023-03-13T03:36:12;98760.47;;;3.41;53.06
62789;BME280;66401;42.016;21.454;2023-03-13T03:38:38;98794.78;;;3.51;52.47
62789;BME280;66401;42.016;21.454;2023-03-13T03:41:07;98796.41;;;3.52;51.83
62789;BME280;66401;42.016;21.454;2023-03-13T03:43:33;98807.00;;;3.68;51.54
62789;BME280;66401;42.016;21.454;2023-03-13T03:45:58;98807.53;;;3.82;51.21
62789;BME280;66401;42.016;21.454;2023-03-13T03:48:24;98812.81;;;3.80;52.60
62789;BME280;66401;42.016;21.454;2023-03-13T03:50:50;98805.38;;;3.87;51.53
62789;BME280;66401;42.016;21.454;2023-03-13T03:53:15;98753.56;;;3.51;51.67
62789;BME280;66401;42.016;21.454;2023-03-13T03:55:41;98810.91;;;3.53;52.60
62789;BME280;66401;42.016;21.454;2023-03-13T03:58:06;98827.56;;;3.49;52.98
62789;BME280;66401;42.016;21.454;2023-03-13T04:00:32;98826.47;;;3.42;53.61
62789;BME280;66401;42.016;21.454;2023-03-13T04:02:57;98842.47;;;3.55;52.06
62789;BME280;66401;42.016;21.454;2023-03-13T04:05:23;98829.19;;;3.50;52.62
62789;BME280;66401;42.016;21.454;2023-03-13T04:07:50;98849.53;;;3.63;52.61
62789;BME280;66401;42.016;21.454;2023-03-13T04:10:16;98852.66;;;3.66;52.46
62789;BME280;66401;42.016;21.454;2023-03-13T04:12:41;98847.38;;;3.49;53.17
62789;BME280;66401;42.016;21.454;2023-03-13T04:15:07;98844.50;;;3.42;52.96
62789;BME280;66401;42.016;21.454;2023-03-13T04:17:33;98855.13;;;3.28;54.21
62789;BME280;66401;42.016;21.454;2023-03-13T04:19:58;98829.53;;;3.26;53.64
62789;BME280;66401;42.016;21.454;2023-03-13T04:22:24;98853.44;;;3.38;54.04
62789;BME280;66401;42.016;21.454;2023-03-13T04:24:50;98874.16;;;3.46;53.39
62789;BME280;66401;42.016;21.454;2023-03-13T04:27:16;98872.31;;;3.48;53.18
62789;BME280;66401;42.016;21.454;2023-03-13T04:29:41;98870.50;;;3.39;53.30
62789;BME280;66401;42.016;21.454;2023-03-13T04:32:07;98845.44;;;3.41;53.89
62789;BME280;66401;42.016;21.454;2023-03-13T04:34:33;98874.50;;;3.62;53.31
62789;BME280;66401;42.016;21.454;2023-03-13T04:36:58;98873.41;;;3.74;52.64
62789;BME280;66401;42.016;21.454;2023-03-13T04:39:24;98828.72;;;3.26;53.36
62789;BME280;66401;42.016;21.454;2023-03-13T04:41:53;98866.91;;;3.61;53.96
62789;BME280;66401;42.016;21.454;2023-03-13T04:44:20;98862.50;;;3.42;53.32
62789;BME280;66401;42.016;21.454;2023-03-13T04:46:46;98881.81;;;3.57;53.25
62789;BME280;66401;42.016;21.454;2023-03-13T04:49:12;98867.94;;;3.39;53.73
62789;BME280;66401;42.016;21.454;2023-03-13T04:51:40;98871.34;;;3.49;53.78
62789;BME280;66401;42.016;21.454;2023-03-13T04:54:05;98869.44;;;3.51;53.81
62789;BME280;66401;42.016;21.454;2023-03-13T04:56:31;98888.03;;;3.64;53.70
62789;BME280;66401;42.016;21.454;2023-03-13T04:58:56;98895.47;;;3.48;53.33
62789;BME280;66401;42.016;21.454;2023-03-13T05:01:22;98906.94;;;3.34;54.14
62789;BME280;66401;42.016;21.454;2023-03-13T05:03:47;98910.19;;;3.36;54.74
62789;BME280;66401;42.016;21.454;2023-03-13T05:06:13;98899.63;;;3.30;54.72
62789;BME280;66401;42.016;21.454;2023-03-13T05:08:38;98916.28;;;3.35;54.15
62789;BME280;66401;42.016;21.454;2023-03-13T05:11:04;98884.50;;;3.15;53.63
62789;BME280;66401;42.016;21.454;2023-03-13T05:13:30;98918.66;;;3.48;53.95
62789;BME280;66401;42.016;21.454;2023-03-13T05:15:56;98921.06;;;3.40;54.16
62789;BME280;66401;42.016;21.454;2023-03-13T05:18:21;98941.97;;;3.56;53.75
62789;BME280;66401;42.016;21.454;2023-03-13T05:20:47;98888.47;;;3.20;54.84
62789;BME280;66401;42.016;21.454;2023-03-13T05:23:12;98929.19;;;3.45;55.35
62789;BME280;66401;42.016;21.454;2023-03-13T05:25:40;98922.22;;;3.66;54.83
62789;BME280;66401;42.016;21.454;2023-03-13T05:28:06;98908.25;;;3.59;53.50
62789;BME280;66401;42.016;21.454;2023-03-13T05:30:31;98938.22;;;3.60;54.16
62789;BME280;66401;42.016;21.454;2023-03-13T05:32:57;98929.66;;;3.60;52.85
62789;BME280;66401;42.016;21.454;2023-03-13T05:35:22;98941.53;;;3.41;53.47
62789;BME280;66401;42.016;21.454;2023-03-13T05:37:48;98928.22;;;3.36;54.25
62789;BME280;66401;42.016;21.454;2023-03-13T05:40:13;98936.25;;;3.43;54.11
62789;BME280;66401;42.016;21.454;2023-03-13T05:42:39;98943.50;;;3.59;53.94
62789;BME280;66401;42.016;21.454;2023-03-13T05:45:05;98940.69;;;3.71;54.45
62789;BME280;66401;42.016;21.454;2023-03-13T05:47:32;98930.38;;;3.71;53.06
62789;BME280;66401;42.016;21.454;2023-03-13T05:49:58;98916.75;;;3.50;53.75
62789;BME280;66401;42.016;21.454;2023-03-13T05:52:23;98936.50;;;3.40;53.08
62789;BME280;66401;42.016;21.454;2023-03-13T05:54:49;98944.41;;;3.48;53.02
62789;BME280;66401;42.016;21.454;2023-03-13T05:57:14;98953.06;;;3.47;54.37
62789;BME280;66401;42.016;21.454;2023-03-13T05:59:40;98943.63;;;3.57;54.85
62789;BME280;66401;42.016;21.454;2023-03-13T06:02:06;98957.69;;;3.53;54.11
62789;BME280;66401;42.016;21.454;2023-03-13T06:04:31;98947.84;;;3.58;53.92
62789;BME280;66401;42.016;21.454;2023-03-13T06:06:56;98948.84;;;3.77;53.55
62789;BME280;66401;42.016;21.454;2023-03-13T06:09:22;98952.34;;;3.76;53.95
62789;BME280;66401;42.016;21.454;2023-03-13T06:11:48;98954.84;;;3.87;53.07
62789;BME280;66401;42.016;21.454;2023-03-13T06:14:13;98946.28;;;3.86;52.87
62789;BME280;66401;42.016;21.454;2023-03-13T06:16:38;98939.91;;;3.90;53.22
62789;BME280;66401;42.016;21.454;2023-03-13T06:19:04;98947.25;;;4.05;52.08
62789;BME280;66401;42.016;21.454;2023-03-13T06:21:29;98956.34;;;4.09;51.86
62789;BME280;66401;42.016;21.454;2023-03-13T06:23:55;98947.25;;;4.14;52.72
62789;BME280;66401;42.016;21.454;2023-03-13T06:26:21;98949.44;;;4.19;52.05
62789;BME280;66401;42.016;21.454;2023-03-13T06:28:49;98956.06;;;4.02;52.74
62789;BME280;66401;42.016;21.454;2023-03-13T06:31:14;98951.88;;;4.01;52.80
62789;BME280;66401;42.016;21.454;2023-03-13T06:33:40;98953.50;;;4.21;52.92
62789;BME280;66401;42.016;21.454;2023-03-13T06:36:06;98939.66;;;4.22;52.43
62789;BME280;66401;42.016;21.454;2023-03-13T06:38:32;98944.81;;;4.22;50.78
62789;BME280;66401;42.016;21.454;2023-03-13T06:41:03;98949.72;;;4.25;52.52
62789;BME280;66401;42.016;21.454;2023-03-13T06:43:29;98943.78;;;4.35;50.27
62789;BME280;66401;42.016;21.454;2023-03-13T06:45:55;98949.31;;;4.30;51.60
62789;BME280;66401;42.016;21.454;2023-03-13T06:48:21;98948.94;;;4.35;50.54
62789;BME280;66401;42.016;21.454;2023-03-13T06:50:49;98956.25;;;4.49;51.66
62789;BME280;66401;42.016;21.454;2023-03-13T06:53:18;98946.88;;;4.67;51.27
62789;BME280;66401;42.016;21.454;2023-03-13T06:55:45;98951.88;;;4.78;50.03
62789;BME280;66401;42.016;21.454;2023-03-13T06:58:11;98964.22;;;4.94;49.85
62789;BME280;66401;42.016;21.454;2023-03-13T07:00:37;98967.47;;;5.06;50.21
62789;BME280;66401;42.016;21.454;2023-03-13T07:03:05;98943.44;;;4.96;50.28
62789;BME280;66401;42.016;21.454;2023-03-13T07:05:30;98964.88;;;5.06;48.61
62789;BME280;66401;42.016;21.454;2023-03-13T07:07:56;98969.59;;;5.10;48.50
62789;BME280;66401;42.016;21.454;2023-03-13T07:10:22;98962.00;;;5.09;48.78
62789;BME280;66401;42.016;21.454;2023-03-13T07:12:47;98953.16;;;5.21;48.37
62789;BME280;66401;42.016;21.454;2023-03-13T07:15:14;98955.56;;;5.32;49.51
62789;BME280;66401;42.016;21.454;2023-03-13T07:17:40;98958.38;;;5.39;48.18
62789;BME280;66401;42.016;21.454;2023-03-13T07:20:05;98950.06;;;5.45;49.26
62789;BME280;66401;42.016;21.454;2023-03-13T07:22:35;98965.00;;;5.51;48.69
62789;BME280;66401;42.016;21.454;2023-03-13T07:25:01;98951.00;;;5.54;48.04
62789;BME280;66401;42.016;21.454;2023-03-13T07:27:26;98958.19;;;5.60;47.90
62789;BME280;66401;42.016;21.454;2023-03-13T07:29:52;98949.22;;;5.54;46.86
62789;BME280;66401;42.016;21.454;2023-03-13T07:32:17;98947.34;;;5.74;45.68
62789;BME280;66401;42.016;21.454;2023-03-13T07:34:43;98940.91;;;5.78;44.64
62789;BME280;66401;42.016;21.454;2023-03-13T07:37:13;98952.16;;;6.85;44.40
62789;BME280;66401;42.016;21.454;2023-03-13T07:39:39;98951.66;;;8.67;39.67
62789;BME280;66401;42.016;21.454;2023-03-13T07:42:05;98948.59;;;10.22;36.32
62789;BME280;66401;42.016;21.454;2023-03-13T07:44:30;98947.09;;;11.55;33.89
62789;BME280;66401;42.016;21.454;2023-03-13T07:46:59;98948.78;;;12.50;32.88
62789;BME280;66401;42.016;21.454;2023-03-13T07:49:25;98943.56;;;13.27;31.18
62789;BME280;66401;42.016;21.454;2023-03-13T07:51:51;98955.50;;;14.52;28.97
62789;BME280;66401;42.016;21.454;2023-03-13T07:54:16;98945.16;;;14.37;29.61
62789;BME280;66401;42.016;21.454;2023-03-13T07:56:42;98949.41;;;15.31;28.29
62789;BME280;66401;42.016;21.454;2023-03-13T07:59:08;98948.34;;;15.58;28.91
62789;BME280;66401;42.016;21.454;2023-03-13T08:01:34;98940.47;;;16.10;27.43
62789;BME280;66401;42.016;21.454;2023-03-13T08:03:59;98946.38;;;16.68;27.70
62789;BME280;66401;42.016;21.454;2023-03-13T08:06:26;98942.22;;;18.14;24.00
62789;BME280;66401;42.016;21.454;2023-03-13T08:08:57;98944.59;;;19.86;21.77
62789;BME280;66401;42.016;21.454;2023-03-13T08:11:24;98943.81;;;19.22;23.28
62789;BME280;66401;42.016;21.454;2023-03-13T08:13:51;98929.81;;;18.02;24.65
62789;BME280;66401;42.016;21.454;2023-03-13T08:16:26;98926.59;;;19.83;22.12
62789;BME280;66401;42.016;21.454;2023-03-13T08:18:53;98948.00;;;20.55;21.24
62789;BME280;66401;42.016;21.454;2023-03-13T08:21:22;98939.44;;;21.20;21.16
62789;BME280;66401;42.016;21.454;2023-03-13T08:23:52;98935.88;;;21.48;19.66
62789;BME280;66401;42.016;21.454;2023-03-13T08:26:19;98936.94;;;20.75;21.17
62789;BME280;66401;42.016;21.454;2023-03-13T08:28:46;98930.47;;;22.68;19.76
62789;BME280;66401;42.016;21.454;2023-03-13T08:31:24;98916.09;;;21.56;19.58
62789;BME280;66401;42.016;21.454;2023-03-13T08:33:50;98909.56;;;21.41;20.47
62789;BME280;66401;42.016;21.454;2023-03-13T08:38:42;98913.25;;;21.84;19.54
62789;BME280;66401;42.016;21.454;2023-03-13T08:41:14;98912.50;;;22.11;20.15
62789;BME280;66401;42.016;21.454;2023-03-13T08:43:39;98898.66;;;22.09;19.38
62789;BME280;66401;42.016;21.454;2023-03-13T08:46:05;98909.44;;;22.29;20.82
62789;BME280;66401;42.016;21.454;2023-03-13T08:48:30;98897.69;;;23.94;17.71
62789;BME280;66401;42.016;21.454;2023-03-13T08:53:26;98902.69;;;23.18;17.65
62789;BME280;66401;42.016;21.454;2023-03-13T08:55:53;98901.88;;;23.80;18.19
62789;BME280;66401;42.016;21.454;2023-03-13T08:58:18;98899.53;;;23.98;16.54
62789;BME280;66401;42.016;21.454;2023-03-13T09:00:44;98893.53;;;22.29;19.68
62789;BME280;66401;42.016;21.454;2023-03-13T09:03:09;98884.06;;;21.35;20.55
62789;BME280;66401;42.016;21.454;2023-03-13T09:05:36;98889.69;;;22.79;18.38
62789;BME280;66401;42.016;21.454;2023-03-13T09:08:02;98883.84;;;22.13;18.71
62789;BME280;66401;42.016;21.454;2023-03-13T09:10:28;98875.88;;;21.20;19.50
62789;BME280;66401;42.016;21.454;2023-03-13T09:12:53;98892.50;;;19.69;22.40
62789;BME280;66401;42.016;21.454;2023-03-13T09:15:19;98880.69;;;18.85;23.32
62789;BME280;66401;42.016;21.454;2023-03-13T09:17:44;98883.38;;;18.43;23.03
62789;BME280;66401;42.016;21.454;2023-03-13T09:20:10;98884.63;;;17.87;24.19
62789;BME280;66401;42.016;21.454;2023-03-13T09:22:35;98878.50;;;18.70;22.40
62789;BME280;66401;42.016;21.454;2023-03-13T09:25:01;98875.09;;;18.28;23.49
62789;BME280;66401;42.016;21.454;2023-03-13T09:27:26;98870.78;;;18.57;22.96
62789;BME280;66401;42.016;21.454;2023-03-13T09:29:53;98871.34;;;18.36;22.86
62789;BME280;66401;42.016;21.454;2023-03-13T09:32:18;98867.81;;;17.52;23.86
62789;BME280;66401;42.016;21.454;2023-03-13T09:34:45;98866.16;;;17.87;23.66
62789;BME280;66401;42.016;21.454;2023-03-13T09:37:11;98873.88;;;17.70;25.33
62789;BME280;66401;42.016;21.454;2023-03-13T09:39:36;98879.09;;;18.84;22.44
62789;BME280;66401;42.016;21.454;2023-03-13T09:42:26;98874.47;;;19.95;21.28
62789;BME280;66401;42.016;21.454;2023-03-13T09:44:59;98862.59;;;21.59;18.63
62789;BME280;66401;42.016;21.454;2023-03-13T09:47:45;98865.94;;;21.27;19.03
62789;BME280;66401;42.016;21.454;2023-03-13T09:50:19;98857.25;;;21.81;19.20
62789;BME280;66401;42.016;21.454;2023-03-13T09:52:48;98861.50;;;20.10;22.17
62789;BME280;66401;42.016;21.454;2023-03-13T09:55:29;98848.06;;;20.62;19.82
62789;BME280;66401;42.016;21.454;2023-03-13T09:58:15;98849.38;;;20.43;19.88
62789;BME280;66401;42.016;21.454;2023-03-13T10:00:53;98851.41;;;20.07;20.21
62789;BME280;66401;42.016;21.454;2023-03-13T10:04:13;98833.28;;;21.43;19.17
62789;BME280;66401;42.016;21.454;2023-03-13T10:06:20;98833.69;;;21.84;19.56
62789;BME280;66401;42.016;21.454;2023-03-13T10:08:46;98825.84;;;24.09;16.55
62789;BME280;66401;42.016;21.454;2023-03-13T10:14:22;98830.63;;;25.48;15.99
62789;BME280;66401;42.016;21.454;2023-03-13T10:17:00;98819.31;;;26.69;15.03
62789;BME280;66401;42.016;21.454;2023-03-13T10:19:39;98808.38;;;25.68;15.55
62789;BME280;66401;42.016;21.454;2023-03-13T10:22:14;98816.03;;;26.48;15.46
62789;BME280;66401;42.016;21.454;2023-03-13T10:24:54;98801.72;;;27.91;13.04
62789;BME280;66401;42.016;21.454;2023-03-13T10:27:21;98799.63;;;29.08;12.40
62789;BME280;66401;42.016;21.454;2023-03-13T10:29:46;98790.28;;;28.78;12.07
62789;BME280;66401;42.016;21.454;2023-03-13T10:32:14;98782.56;;;28.76;12.95
62789;BME280;66401;42.016;21.454;2023-03-13T10:37:20;98773.31;;;29.10;11.62
62789;BME280;66401;42.016;21.454;2023-03-13T10:39:46;98768.09;;;30.39;10.42
62789;BME280;66401;42.016;21.454;2023-03-13T10:42:42;98757.53;;;28.95;12.61
62789;BME280;66401;42.016;21.454;2023-03-13T10:45:06;98748.50;;;27.52;13.33
62789;BME280;66401;42.016;21.454;2023-03-13T10:47:34;98742.34;;;30.69;11.08
62789;BME280;66401;42.016;21.454;2023-03-13T10:50:00;98745.22;;;28.94;11.79
62789;BME280;66401;42.016;21.454;2023-03-13T10:52:32;98738.84;;;30.77;10.35
62789;BME280;66401;42.016;21.454;2023-03-13T10:55:04;98734.09;;;30.04;11.26
62789;BME280;66401;42.016;21.454;2023-03-13T10:57:34;98733.25;;;29.72;11.77
62789;BME280;66401;42.016;21.454;2023-03-13T11:00:04;98731.50;;;28.54;11.83
62789;BME280;66401;42.016;21.454;2023-03-13T11:02:47;98729.34;;;26.35;12.34
62789;BME280;66401;42.016;21.454;2023-03-13T11:07:48;98713.03;;;28.94;12.40
62789;BME280;66401;42.016;21.454;2023-03-13T11:12:47;98710.63;;;28.23;12.73
62789;BME280;66401;42.016;21.454;2023-03-13T11:15:27;98703.09;;;28.94;12.01
62789;BME280;66401;42.016;21.454;2023-03-13T11:18:22;98705.69;;;27.71;13.08
62789;BME280;66401;42.016;21.454;2023-03-13T11:20:51;98702.69;;;29.15;13.01
62789;BME280;66401;42.016;21.454;2023-03-13T11:23:27;98703.31;;;28.70;13.38
62789;BME280;66401;42.016;21.454;2023-03-13T11:26:18;98692.38;;;29.30;12.13
62789;BME280;66401;42.016;21.454;2023-03-13T11:29:21;98680.84;;;26.71;14.66
62789;BME280;66401;42.016;21.454;2023-03-13T11:31:56;98680.69;;;28.63;13.17
62789;BME280;66401;42.016;21.454;2023-03-13T11:34:51;98678.78;;;28.91;11.94
62789;BME280;66401;42.016;21.454;2023-03-13T11:37:21;98665.31;;;28.68;12.11
62789;BME280;66401;42.016;21.454;2023-03-13T11:57:35;98626.13;;;26.87;13.51
62789;BME280;66401;42.016;21.454;2023-03-13T12:02:55;98624.41;;;25.19;15.00
62789;BME280;66401;42.016;21.454;2023-03-13T12:05:24;98624.16;;;25.20;14.17
62789;BME280;66401;42.016;21.454;2023-03-13T12:07:57;98621.47;;;24.16;15.25
62789;BME280;66401;42.016;21.454;2023-03-13T12:10:36;98610.91;;;22.89;16.46
62789;BME280;66401;42.016;21.454;2023-03-13T12:13:24;98608.56;;;22.30;16.76
62789;BME280;66401;42.016;21.454;2023-03-13T12:15:58;98609.06;;;21.80;16.87
62789;BME280;66401;42.016;21.454;2023-03-13T12:18:39;98598.41;;;21.05;18.00
62789;BME280;66401;42.016;21.454;2023-03-13T12:23:57;98587.44;;;20.21;18.40
62789;BME280;66401;42.016;21.454;2023-03-13T12:31:53;98580.25;;;18.65;21.16
62789;BME280;66401;42.016;21.454;2023-03-13T12:34:35;98570.94;;;18.91;19.58
62789;BME280;66401;42.016;21.454;2023-03-13T12:37:17;98580.78;;;18.39;19.89
62789;BME280;66401;42.016;21.454;2023-03-13T12:40:00;98572.41;;;17.78;21.40
62789;BME280;66401;42.016;21.454;2023-03-13T12:45:00;98565.28;;;17.43;20.96
62789;BME280;66401;42.016;21.454;2023-03-13T12:50:41;98552.13;;;17.67;21.90
62789;BME280;66401;42.016;21.454;2023-03-13T12:56:12;98540.88;;;18.07;20.36
62789;BME280;66401;42.016;21.454;2023-03-13T13:01:41;98542.94;;;17.93;21.52
62789;BME280;66401;42.016;21.454;2023-03-13T13:04:13;98532.44;;;17.58;21.46
62789;BME280;66401;42.016;21.454;2023-03-13T13:06:54;98537.22;;;17.84;20.43
62789;BME280;66401;42.016;21.454;2023-03-13T13:09:24;98533.69;;;17.67;20.98
62789;BME280;66401;42.016;21.454;2023-03-13T13:11:52;98524.66;;;17.51;21.04
62789;BME280;66401;42.016;21.454;2023-03-13T13:16:50;98532.19;;;17.24;20.27
62789;BME280;66401;42.016;21.454;2023-03-13T13:30:04;98520.59;;;16.90;21.31
62789;BME280;66401;42.016;21.454;2023-03-13T13:32:52;98513.84;;;17.06;21.64
62789;BME280;66401;42.016;21.454;2023-03-13T13:35:24;98513.25;;;16.80;23.80
62789;BME280;66401;42.016;21.454;2023-03-13T13:37:50;98515.41;;;16.72;22.61
62789;BME280;66401;42.016;21.454;2023-03-13T13:40:27;98503.56;;;16.93;22.11
62789;BME280;66401;42.016;21.454;2023-03-13T13:42:57;98510.63;;;16.80;21.92
62789;BME280;66401;42.016;21.454;2023-03-13T13:45:29;98493.94;;;16.56;21.99
62789;BME280;66401;42.016;21.454;2023-03-13T13:53:42;98497.41;;;16.09;23.97
62789;BME280;66401;42.016;21.454;2023-03-13T13:59:15;98486.88;;;16.27;24.26
62789;BME280;66401;42.016;21.454;2023-03-13T14:04:36;98494.03;;;16.20;22.76
62789;BME280;66401;42.016;21.454;2023-03-13T14:07:04;98487.72;;;16.09;23.29
62789;BME280;66401;42.016;21.454;2023-03-13T14:12:34;98481.59;;;15.79;22.87
62789;BME280;66401;42.016;21.454;2023-03-13T14:17:55;98468.63;;;15.84;23.38
62789;BME280;66401;42.016;21.454;2023-03-13T14:20:36;98473.00;;;15.90;23.12
62789;BME280;66401;42.016;21.454;2023-03-13T14:23:10;98465.56;;;15.87;22.49
62789;BME280;66401;42.016;21.454;2023-03-13T14:25:47;98466.16;;;15.70;23.51
62789;BME280;66401;42.016;21.454;2023-03-13T14:28:22;98461.41;;;15.61;24.32
62789;BME280;66401;42.016;21.454;2023-03-13T14:30:51;98458.72;;;15.67;24.81
62789;BME280;66401;42.016;21.454;2023-03-13T14:33:18;98464.78;;;15.68;24.83
62789;BME280;66401;42.016;21.454;2023-03-13T14:35:44;98465.56;;;15.68;22.96
62789;BME280;66401;42.016;21.454;2023-03-13T14:38:25;98478.97;;;15.60;23.73